createdAt,value
2017-07-19T00:01:51.761Z,58.50
2017-07-19T00:04:20.033Z,58.50
2017-07-19T00:06:48.455Z,58.40
2017-07-19T00:09:16.724Z,58.60
2017-07-19T00:11:44.986Z,58.20
2017-07-19T00:14:13.259Z,58.80
2017-07-19T00:16:41.534Z,58.40
2017-07-19T00:19:10.603Z,58.60
2017-07-19T00:21:38.876Z,58.60
2017-07-19T00:24:07.188Z,58.60
2017-07-19T00:26:35.486Z,58.50
2017-07-19T00:29:04.516Z,58.40
2017-07-19T00:31:32.786Z,58.30
2017-07-19T00:34:01.045Z,58.60
2017-07-19T00:36:29.370Z,58.70
2017-07-19T00:38:57.631Z,58.40
2017-07-19T00:41:26.037Z,58.40
2017-07-19T00:43:54.293Z,58.50
2017-07-19T00:46:22.602Z,58.80
2017-07-19T00:48:51.087Z,59.00
2017-07-19T00:51:20.252Z,60.00
2017-07-19T00:53:48.548Z,59.40
2017-07-19T00:56:16.830Z,59.50
2017-07-19T00:58:45.074Z,59.50
2017-07-19T01:01:13.368Z,59.60
2017-07-19T01:03:41.650Z,59.40
2017-07-19T01:06:09.906Z,59.20
2017-07-19T01:08:38.182Z,59.20
2017-07-19T01:11:06.468Z,59.60
2017-07-19T01:13:34.792Z,59.70
2017-07-19T01:16:03.070Z,59.60
2017-07-19T01:18:31.383Z,59.20
2017-07-19T01:20:59.630Z,59.10
2017-07-19T01:23:27.919Z,59.80
2017-07-19T01:25:56.188Z,59.20
2017-07-19T01:28:24.446Z,59.20
2017-07-19T01:30:52.781Z,59.60
2017-07-19T01:33:21.053Z,59.40
2017-07-19T01:35:49.336Z,59.50
2017-07-19T01:38:17.682Z,59.60
2017-07-19T01:40:45.946Z,59.40
2017-07-19T01:43:14.218Z,59.70
2017-07-19T01:45:42.514Z,59.70
2017-07-19T01:48:10.805Z,59.60
2017-07-19T01:50:39.055Z,59.50
2017-07-19T01:53:07.402Z,60.10
2017-07-19T01:55:35.680Z,59.70
2017-07-19T01:58:04.063Z,59.80
2017-07-19T02:00:32.318Z,59.80
2017-07-19T02:03:00.614Z,60.00
2017-07-19T02:05:28.949Z,60.00
2017-07-19T02:07:57.464Z,60.00
2017-07-19T02:10:25.759Z,59.90
2017-07-19T02:12:54.014Z,60.00
2017-07-19T02:15:22.427Z,60.20
2017-07-19T02:17:50.674Z,60.40
2017-07-19T02:20:18.944Z,60.50
2017-07-19T02:22:47.273Z,60.60
2017-07-19T02:25:15.535Z,60.60
2017-07-19T02:27:43.791Z,61.00
2017-07-19T02:30:12.089Z,61.20
2017-07-19T02:32:40.341Z,61.40
2017-07-19T02:35:08.607Z,61.50
2017-07-19T02:37:36.919Z,62.00
2017-07-19T02:40:05.243Z,62.30
2017-07-19T02:42:33.589Z,62.70
2017-07-19T02:45:01.910Z,62.80
2017-07-19T02:47:30.165Z,63.10
2017-07-19T02:49:58.521Z,63.10
2017-07-19T02:52:26.852Z,63.10
2017-07-19T02:54:55.122Z,63.10
2017-07-19T02:57:23.439Z,63.30
2017-07-19T02:59:51.730Z,63.70
2017-07-19T03:02:20.750Z,64.50
2017-07-19T03:04:49.101Z,64.50
2017-07-19T03:07:17.338Z,64.30
2017-07-19T03:09:45.585Z,64.40
2017-07-19T03:12:14.728Z,64.50
2017-07-19T03:14:42.986Z,64.30
2017-07-19T03:17:11.260Z,64.50
2017-07-19T03:19:39.564Z,64.30
2017-07-19T03:22:07.902Z,64.00
2017-07-19T03:24:36.203Z,64.10
2017-07-19T03:27:04.479Z,64.10
2017-07-19T03:29:32.769Z,64.10
2017-07-19T03:32:01.066Z,64.20
2017-07-19T03:34:29.324Z,64.10
2017-07-19T03:36:57.573Z,64.00
2017-07-19T03:39:25.886Z,64.20
2017-07-19T03:41:54.947Z,64.40
2017-07-19T03:44:23.213Z,64.20
2017-07-19T03:46:51.478Z,64.50
2017-07-19T03:49:19.880Z,64.60
2017-07-19T03:51:48.136Z,64.70
2017-07-19T03:54:16.408Z,64.60
2017-07-19T03:56:44.760Z,64.60
2017-07-19T03:59:13.046Z,64.60
2017-07-19T04:01:41.387Z,64.50
2017-07-19T04:04:09.647Z,64.80
2017-07-19T04:06:37.886Z,64.80
2017-07-19T04:09:06.210Z,65.30
2017-07-19T04:11:35.228Z,65.20
2017-07-19T04:14:03.520Z,65.20
2017-07-19T04:16:31.799Z,65.20
2017-07-19T04:19:00.093Z,66.00
2017-07-19T04:21:28.445Z,65.30
2017-07-19T04:23:56.707Z,65.50
2017-07-19T04:26:25.017Z,65.50
2017-07-19T04:28:53.282Z,65.90
2017-07-19T04:31:21.558Z,65.90
2017-07-19T04:33:49.851Z,66.20
2017-07-19T04:36:18.096Z,66.70
2017-07-19T04:38:46.429Z,66.70
2017-07-19T04:41:14.802Z,66.60
2017-07-19T04:43:43.113Z,66.80
2017-07-19T04:46:11.455Z,66.50
2017-07-19T04:48:39.712Z,65.70
2017-07-19T04:51:07.973Z,65.60
2017-07-19T04:53:36.293Z,65.20
2017-07-19T04:56:05.333Z,65.10
2017-07-19T04:58:33.612Z,64.90
2017-07-19T05:01:01.869Z,64.90
2017-07-19T05:03:30.189Z,64.90
2017-07-19T05:05:58.528Z,64.90
2017-07-19T05:08:26.770Z,65.00
2017-07-19T05:10:55.792Z,64.10
2017-07-19T05:13:24.057Z,64.10
2017-07-19T05:15:52.553Z,63.90
2017-07-19T05:18:20.849Z,63.60
2017-07-19T05:20:49.114Z,63.80
2017-07-19T05:23:17.432Z,63.70
2017-07-19T05:25:45.828Z,63.10
2017-07-19T05:28:14.893Z,62.40
2017-07-19T05:30:43.317Z,62.40
2017-07-19T05:33:11.597Z,61.50
2017-07-19T05:35:39.889Z,60.60
2017-07-19T05:38:08.498Z,60.60
2017-07-19T05:40:36.854Z,60.30
2017-07-19T05:43:05.113Z,60.30
2017-07-19T05:45:33.417Z,60.40
2017-07-19T05:48:01.772Z,59.90
2017-07-19T05:50:30.107Z,60.00
2017-07-19T05:52:59.165Z,59.00
2017-07-19T05:55:27.445Z,59.00
2017-07-19T05:57:55.690Z,58.30
2017-07-19T06:00:24.057Z,57.90
2017-07-19T06:02:52.342Z,57.00
2017-07-19T06:05:20.773Z,56.50
2017-07-19T06:07:49.045Z,55.90
2017-07-19T06:10:17.314Z,54.60
2017-07-19T06:12:45.631Z,53.50
2017-07-19T06:15:13.913Z,52.60
2017-07-19T06:17:42.317Z,51.80
2017-07-19T06:20:10.632Z,51.30
2017-07-19T06:22:38.921Z,50.70
2017-07-19T06:25:07.982Z,48.90
2017-07-19T06:27:36.374Z,48.90
2017-07-19T06:30:04.626Z,48.20
2017-07-19T06:32:33.061Z,48.10
2017-07-19T06:35:02.085Z,46.60
2017-07-19T06:37:30.475Z,46.60
2017-07-19T06:39:58.765Z,46.50
2017-07-19T06:42:27.012Z,46.60
2017-07-19T06:44:55.350Z,46.20
2017-07-19T06:47:24.411Z,47.00
2017-07-19T06:49:52.710Z,46.90
2017-07-19T06:52:21.097Z,47.10
2017-07-19T06:54:49.373Z,47.70
2017-07-19T06:57:18.519Z,48.60
2017-07-19T06:59:46.805Z,48.20
2017-07-19T07:02:15.101Z,48.20
2017-07-19T07:04:43.458Z,48.40
2017-07-19T07:07:11.824Z,48.60
2017-07-19T07:09:40.118Z,49.20
2017-07-19T07:12:08.457Z,49.20
2017-07-19T07:14:36.804Z,49.00
2017-07-19T07:17:05.864Z,49.40
2017-07-19T07:19:34.237Z,49.30
2017-07-19T07:22:02.516Z,49.20
2017-07-19T07:24:30.753Z,49.20
2017-07-19T07:26:59.041Z,49.00
2017-07-19T07:29:27.298Z,48.80
2017-07-19T07:31:55.573Z,48.60
2017-07-19T07:34:23.865Z,48.60
2017-07-19T07:36:52.270Z,47.30
2017-07-19T07:39:20.546Z,46.70
2017-07-19T07:41:48.801Z,45.50
2017-07-19T07:44:17.235Z,45.00
2017-07-19T07:46:46.258Z,43.90
2017-07-19T07:49:14.576Z,43.30
2017-07-19T07:51:42.829Z,42.00
2017-07-19T07:54:11.214Z,40.90
2017-07-19T07:56:39.516Z,39.80
2017-07-19T07:59:07.776Z,39.30
2017-07-19T08:01:36.273Z,38.60
2017-07-19T08:04:04.542Z,38.80
2017-07-19T08:06:33.063Z,37.40
2017-07-19T08:09:02.173Z,37.50
2017-07-19T08:11:30.525Z,37.50
2017-07-19T08:13:58.950Z,37.30
2017-07-19T08:16:27.441Z,37.80
2017-07-19T08:18:55.792Z,37.60
2017-07-19T08:21:24.152Z,36.70
2017-07-19T08:23:52.622Z,37.40
2017-07-19T08:26:21.654Z,36.30
2017-07-19T08:28:49.909Z,36.30
2017-07-19T08:31:18.319Z,35.90
2017-07-19T08:33:46.646Z,36.00
2017-07-19T08:36:14.897Z,36.50
2017-07-19T08:38:43.145Z,37.10
2017-07-19T08:41:11.428Z,35.90
2017-07-19T08:43:39.698Z,35.70
2017-07-19T08:46:07.980Z,35.10
2017-07-19T08:48:36.235Z,34.20
2017-07-19T08:51:04.610Z,34.00
2017-07-19T08:53:32.859Z,33.70
2017-07-19T08:56:01.209Z,32.60
2017-07-19T08:58:29.461Z,32.90
2017-07-19T09:00:57.737Z,33.20
2017-07-19T09:03:26.035Z,32.50
2017-07-19T09:05:54.296Z,33.20
2017-07-19T09:08:22.608Z,33.00
2017-07-19T09:10:50.924Z,31.90
2017-07-19T09:13:19.208Z,31.40
2017-07-19T09:15:47.476Z,30.70
2017-07-19T09:18:15.842Z,31.40
2017-07-19T09:20:44.138Z,31.10
2017-07-19T09:23:12.383Z,31.70
2017-07-19T09:25:40.677Z,31.50
2017-07-19T09:28:08.909Z,30.90
2017-07-19T09:30:37.233Z,31.80
2017-07-19T09:33:05.481Z,29.90
2017-07-19T09:35:33.749Z,30.90
2017-07-19T09:38:02.003Z,31.10
2017-07-19T09:40:31.041Z,30.60
2017-07-19T09:42:59.344Z,30.00
2017-07-19T09:45:27.621Z,30.70
2017-07-19T09:47:55.939Z,31.70
2017-07-19T09:50:24.269Z,31.30
2017-07-19T09:52:52.615Z,30.50
2017-07-19T09:55:20.860Z,30.90
2017-07-19T09:57:49.212Z,30.00
2017-07-19T10:00:17.471Z,30.80
2017-07-19T10:02:45.735Z,30.90
2017-07-19T10:05:14.022Z,29.50
2017-07-19T10:07:42.362Z,30.00
2017-07-19T10:10:10.705Z,29.90
2017-07-19T10:12:38.999Z,29.90
2017-07-19T10:15:07.225Z,31.30
2017-07-19T10:17:35.589Z,29.50
2017-07-19T10:20:03.985Z,29.10
2017-07-19T10:22:32.367Z,28.80
2017-07-19T10:25:00.621Z,29.30
2017-07-19T10:27:29.018Z,29.60
2017-07-19T10:29:57.561Z,28.00
2017-07-19T10:32:25.817Z,28.30
2017-07-19T10:34:54.254Z,28.20
2017-07-19T10:37:22.697Z,28.80
2017-07-19T10:39:51.279Z,28.30
2017-07-19T10:42:19.746Z,28.00
2017-07-19T10:44:48.169Z,27.90
2017-07-19T10:47:16.590Z,27.00
2017-07-19T10:49:45.073Z,26.90
2017-07-19T10:52:13.592Z,27.30
2017-07-19T10:54:41.922Z,27.00
2017-07-19T10:57:10.540Z,27.30
2017-07-19T10:59:38.951Z,26.20
2017-07-19T11:02:07.601Z,26.30
2017-07-19T11:04:36.019Z,26.20
2017-07-19T11:07:04.645Z,26.10
2017-07-19T11:09:33.178Z,25.80
2017-07-19T11:12:01.476Z,24.50
2017-07-19T11:14:30.145Z,25.30
2017-07-19T11:16:58.561Z,24.90
2017-07-19T11:19:26.994Z,24.20
2017-07-19T11:21:55.608Z,23.50
2017-07-19T11:24:24.860Z,22.80
2017-07-19T11:26:54.106Z,22.20
2017-07-19T11:29:23.270Z,21.70
2017-07-19T11:31:51.891Z,21.20
2017-07-19T11:34:21.116Z,20.40
2017-07-19T11:36:49.574Z,20.40
2017-07-19T11:39:18.330Z,20.80
2017-07-19T11:41:46.729Z,20.30
2017-07-19T11:44:15.326Z,20.60
2017-07-19T11:46:43.918Z,20.10
2017-07-19T11:49:12.410Z,19.90
2017-07-19T11:51:40.984Z,20.50
2017-07-19T11:54:09.599Z,20.30
2017-07-19T11:56:38.050Z,20.80
2017-07-19T11:59:06.511Z,20.10
2017-07-19T12:01:35.026Z,19.70
2017-07-19T12:04:03.442Z,20.10
2017-07-19T12:06:32.102Z,20.40
2017-07-19T12:09:01.085Z,20.70
2017-07-19T12:11:30.385Z,20.20
2017-07-19T12:13:59.042Z,20.20
2017-07-19T12:16:27.731Z,20.40
2017-07-19T12:18:57.593Z,20.60
2017-07-19T12:21:26.814Z,20.70
2017-07-19T12:23:55.494Z,20.50
2017-07-19T12:26:23.972Z,21.40
2017-07-19T12:28:52.764Z,21.40
2017-07-19T12:31:21.567Z,22.50
2017-07-19T12:33:50.730Z,24.10
2017-07-19T12:36:19.277Z,24.00
2017-07-19T12:38:47.733Z,25.40
2017-07-19T12:41:16.523Z,25.70
2017-07-19T12:43:45.861Z,25.80
2017-07-19T12:46:14.370Z,26.50
2017-07-19T12:48:43.215Z,27.10
2017-07-19T12:51:11.880Z,27.00
2017-07-19T12:53:40.492Z,27.70
2017-07-19T12:56:09.765Z,27.20
2017-07-19T12:58:38.368Z,27.20
2017-07-19T13:01:06.758Z,27.00
2017-07-19T13:03:35.118Z,26.80
2017-07-19T13:06:03.856Z,26.50
2017-07-19T13:08:32.353Z,26.70
2017-07-19T13:11:00.887Z,27.00
2017-07-19T13:13:29.827Z,26.60
2017-07-19T13:15:58.283Z,26.10
2017-07-19T13:18:26.533Z,27.60
2017-07-19T13:20:54.830Z,28.10
2017-07-19T13:23:23.355Z,27.00
2017-07-19T13:25:51.798Z,27.20
2017-07-19T13:28:20.435Z,27.00
2017-07-19T13:30:48.985Z,27.60
2017-07-19T13:33:17.272Z,27.70
2017-07-19T13:35:45.644Z,27.30
2017-07-19T13:38:13.930Z,28.40
2017-07-19T13:40:42.513Z,28.90
2017-07-19T13:43:11.746Z,28.50
2017-07-19T13:45:40.213Z,29.10
2017-07-19T13:48:08.670Z,29.60
2017-07-19T13:50:37.935Z,29.40
2017-07-19T13:53:06.354Z,29.20
2017-07-19T13:55:34.645Z,29.70
2017-07-19T13:58:03.117Z,30.00
2017-07-19T14:00:31.550Z,29.30
2017-07-19T14:03:01.471Z,29.90
2017-07-19T14:05:29.798Z,29.30
2017-07-19T14:07:58.235Z,29.10
2017-07-19T14:10:27.424Z,30.70
2017-07-19T14:12:55.994Z,30.40
2017-07-19T14:15:24.557Z,30.00
2017-07-19T14:17:53.129Z,30.20
2017-07-19T14:20:21.661Z,31.20
2017-07-19T14:22:50.018Z,30.20
2017-07-19T14:25:19.307Z,29.90
2017-07-19T14:27:48.106Z,29.80
2017-07-19T14:30:16.487Z,30.00
2017-07-19T14:32:44.933Z,30.00
2017-07-19T14:35:13.502Z,30.50
2017-07-19T14:37:42.100Z,29.90
2017-07-19T14:40:10.469Z,30.10
2017-07-19T14:42:38.934Z,30.00
2017-07-19T14:45:07.421Z,31.00
2017-07-19T14:47:36.123Z,31.00
2017-07-19T14:50:04.778Z,31.50
2017-07-19T14:52:33.386Z,31.10
2017-07-19T14:55:01.893Z,31.50
2017-07-19T14:57:30.520Z,31.50
2017-07-19T14:59:59.292Z,31.80
2017-07-19T15:02:27.989Z,31.70
2017-07-19T15:04:59.001Z,31.50
2017-07-19T15:07:27.974Z,32.20
2017-07-19T15:09:56.341Z,31.10
2017-07-19T15:12:24.755Z,31.10
2017-07-19T15:14:54.137Z,31.30
2017-07-19T15:17:22.457Z,31.30
2017-07-19T15:19:50.934Z,31.40
2017-07-19T15:22:20.154Z,31.90
2017-07-19T15:24:48.480Z,31.90
2017-07-19T15:27:23.290Z,31.60
2017-07-19T15:29:51.705Z,31.30
2017-07-19T15:32:20.756Z,31.90
2017-07-19T15:34:49.282Z,31.50
2017-07-19T15:37:17.887Z,31.30
2017-07-19T15:39:46.248Z,31.50
2017-07-19T15:42:14.910Z,32.00
2017-07-19T15:44:43.311Z,31.80
2017-07-19T15:47:12.836Z,33.10
2017-07-19T15:49:41.399Z,37.00
2017-07-19T15:52:10.674Z,45.10
2017-07-19T15:54:41.766Z,50.50
2017-07-19T15:57:10.382Z,48.20
2017-07-19T15:59:41.417Z,52.10
2017-07-19T16:02:10.132Z,55.20
2017-07-19T16:04:41.369Z,59.90
2017-07-19T16:07:10.565Z,52.30
2017-07-19T16:09:38.973Z,51.80
2017-07-19T16:12:08.133Z,46.70
2017-07-19T16:14:37.413Z,48.40
2017-07-19T16:17:06.553Z,49.40
2017-07-19T16:19:35.179Z,49.20
2017-07-19T16:22:03.947Z,49.80
2017-07-19T16:24:32.473Z,48.90
2017-07-19T16:27:00.825Z,48.50
2017-07-19T16:29:29.719Z,47.50
2017-07-19T16:31:58.154Z,46.90
2017-07-19T16:34:26.621Z,46.70
2017-07-19T16:36:54.901Z,48.10
2017-07-19T16:39:23.361Z,45.20
2017-07-19T16:41:52.385Z,42.50
2017-07-19T16:44:20.638Z,42.40
2017-07-19T16:46:48.934Z,43.00
2017-07-19T16:49:17.206Z,43.40
2017-07-19T16:51:45.564Z,44.10
2017-07-19T16:54:13.860Z,44.80
2017-07-19T16:56:42.148Z,43.70
2017-07-19T16:59:10.491Z,42.50
2017-07-19T17:01:39.589Z,42.90
2017-07-19T17:04:07.901Z,42.90
2017-07-19T17:06:36.357Z,42.80
2017-07-19T17:09:04.605Z,43.60
2017-07-19T17:11:33.028Z,44.00
2017-07-19T17:14:01.328Z,44.40
2017-07-19T17:16:29.579Z,46.00
2017-07-19T17:18:57.920Z,52.30
2017-07-19T17:21:26.204Z,53.00
2017-07-19T17:23:54.500Z,53.30
2017-07-19T17:26:22.812Z,53.40
2017-07-19T17:28:51.140Z,55.30
2017-07-19T17:31:19.545Z,56.30
2017-07-19T17:33:47.943Z,58.20
2017-07-19T17:36:16.245Z,60.00
2017-07-19T17:38:45.286Z,60.20
2017-07-19T17:41:13.690Z,59.60
2017-07-19T17:43:42.870Z,57.90
2017-07-19T17:46:11.278Z,57.90
2017-07-19T17:48:40.366Z,58.50
2017-07-19T17:51:08.618Z,58.40
2017-07-19T17:53:37.030Z,58.60
2017-07-19T17:56:06.082Z,58.70
2017-07-19T17:58:34.366Z,58.60
2017-07-19T18:01:02.776Z,58.50
2017-07-19T18:03:31.059Z,58.80
2017-07-19T18:05:59.399Z,58.60
2017-07-19T18:08:27.674Z,58.30
2017-07-19T18:10:55.924Z,57.50
2017-07-19T18:13:24.188Z,56.90
2017-07-19T18:15:52.574Z,57.10
2017-07-19T18:18:20.871Z,57.20
2017-07-19T18:20:49.166Z,57.20
2017-07-19T18:23:17.499Z,57.40
2017-07-19T18:25:45.782Z,57.30
2017-07-19T18:28:14.960Z,58.00
2017-07-19T18:30:43.793Z,57.90
2017-07-19T18:33:12.125Z,58.00
2017-07-19T18:35:41.177Z,59.40
2017-07-19T18:38:09.469Z,59.40
2017-07-19T18:40:38.592Z,60.00
2017-07-19T18:43:06.885Z,60.00
2017-07-19T18:45:35.210Z,61.20
2017-07-19T18:48:03.536Z,61.70
2017-07-19T18:50:32.088Z,61.40
2017-07-19T18:53:00.445Z,61.00
2017-07-19T18:55:28.797Z,61.50
2017-07-19T18:57:57.871Z,60.90
2017-07-19T19:00:26.209Z,60.80
2017-07-19T19:02:54.668Z,61.30
2017-07-19T19:05:22.977Z,61.30
2017-07-19T19:07:51.662Z,61.20
2017-07-19T19:10:20.085Z,61.80
2017-07-19T19:12:48.429Z,62.10
2017-07-19T19:15:16.738Z,62.30
2017-07-19T19:17:45.173Z,62.30
2017-07-19T19:20:14.200Z,63.40
2017-07-19T19:22:42.452Z,63.40
2017-07-19T19:25:10.739Z,63.40
2017-07-19T19:27:39.194Z,64.80
2017-07-19T19:30:08.246Z,65.60
2017-07-19T19:32:36.505Z,64.70
2017-07-19T19:35:04.789Z,64.60
2017-07-19T19:37:33.100Z,64.30
2017-07-19T19:40:01.468Z,64.40
2017-07-19T19:42:29.733Z,64.70
2017-07-19T19:44:58.042Z,64.70
2017-07-19T19:47:27.093Z,64.90
2017-07-19T19:49:55.445Z,64.90
2017-07-19T19:52:23.793Z,65.10
2017-07-19T19:54:52.847Z,65.00
2017-07-19T19:57:21.109Z,65.00
2017-07-19T19:59:49.401Z,64.80
2017-07-19T20:02:17.718Z,64.90
2017-07-19T20:04:46.845Z,64.70
2017-07-19T20:07:15.295Z,64.60
2017-07-19T20:09:44.093Z,64.70
2017-07-19T20:12:14.797Z,65.00
2017-07-19T20:14:43.052Z,64.90
2017-07-19T20:17:11.346Z,64.40
2017-07-19T20:19:39.582Z,64.50
2017-07-19T20:22:07.861Z,64.30
2017-07-19T20:24:36.125Z,64.20
2017-07-19T20:27:04.382Z,64.30
2017-07-19T20:29:32.671Z,64.30
2017-07-19T20:32:00.959Z,63.70
2017-07-19T20:34:29.206Z,63.90
2017-07-19T20:36:57.497Z,63.60
2017-07-19T20:39:25.744Z,64.00
2017-07-19T20:41:54.757Z,64.40
2017-07-19T20:44:23.049Z,64.30
2017-07-19T20:46:51.294Z,64.10
2017-07-19T20:49:19.538Z,64.50
2017-07-19T20:51:47.796Z,64.80
2017-07-19T20:54:16.041Z,64.90
2017-07-19T20:56:44.288Z,64.80
2017-07-19T20:59:13.393Z,65.10
2017-07-19T21:01:42.522Z,65.00
2017-07-19T21:04:10.794Z,65.00
2017-07-19T21:06:39.126Z,64.90
2017-07-19T21:09:08.186Z,64.80
2017-07-19T21:11:37.251Z,65.10
2017-07-19T21:14:05.574Z,65.00
2017-07-19T21:16:33.872Z,64.90
2017-07-19T21:19:02.896Z,64.90
2017-07-19T21:21:31.165Z,64.90
2017-07-19T21:23:59.509Z,65.40
2017-07-19T21:26:27.805Z,65.10
2017-07-19T21:28:56.086Z,65.50
2017-07-19T21:31:24.462Z,65.20
2017-07-19T21:33:53.574Z,65.50
2017-07-19T21:36:21.829Z,65.50
2017-07-19T21:38:50.171Z,65.30
2017-07-19T21:41:18.414Z,65.40
2017-07-19T21:43:46.739Z,65.30
2017-07-19T21:46:15.753Z,65.90
2017-07-19T21:48:44.048Z,65.80
2017-07-19T21:51:12.341Z,66.20
2017-07-19T21:53:46.392Z,66.20
2017-07-19T21:56:15.406Z,66.60
2017-07-19T21:58:43.685Z,66.60
2017-07-19T22:01:11.942Z,66.40
2017-07-19T22:03:40.209Z,66.10
2017-07-19T22:06:09.294Z,67.40
2017-07-19T22:08:37.622Z,67.40
2017-07-19T22:11:05.949Z,67.00
2017-07-19T22:13:34.287Z,66.60
2017-07-19T22:16:02.573Z,67.10
2017-07-19T22:18:30.812Z,67.30
2017-07-19T22:20:59.213Z,67.70
2017-07-19T22:23:27.489Z,68.10
2017-07-19T22:25:55.744Z,68.10
2017-07-19T22:28:23.985Z,68.50
2017-07-19T22:30:53.065Z,68.70
2017-07-19T22:33:21.356Z,68.60
2017-07-19T22:35:49.692Z,68.30
2017-07-19T22:38:18.053Z,68.00
2017-07-19T22:40:46.305Z,68.00
2017-07-19T22:43:14.561Z,68.10
2017-07-19T22:45:43.601Z,68.10
2017-07-19T22:48:11.942Z,68.00
2017-07-19T22:50:40.999Z,68.10
2017-07-19T22:53:09.265Z,68.00
2017-07-19T22:55:37.551Z,68.10
2017-07-19T22:58:05.823Z,68.30
2017-07-19T23:00:34.118Z,68.50
2017-07-19T23:03:02.353Z,68.50
2017-07-19T23:05:30.689Z,68.40
2017-07-19T23:07:59.721Z,68.70
2017-07-19T23:10:28.074Z,68.70
2017-07-19T23:12:56.359Z,69.20
2017-07-19T23:15:24.702Z,69.10
2017-07-19T23:17:52.978Z,69.20
2017-07-19T23:20:21.246Z,69.10
2017-07-19T23:22:50.314Z,69.90
2017-07-19T23:25:18.554Z,69.30
2017-07-19T23:27:46.826Z,69.20
2017-07-19T23:30:15.140Z,68.90
2017-07-19T23:32:43.492Z,69.20
2017-07-19T23:35:11.796Z,69.30
2017-07-19T23:37:40.908Z,69.60
2017-07-19T23:40:09.389Z,69.60
2017-07-19T23:42:38.593Z,69.80
2017-07-19T23:45:06.832Z,69.80
2017-07-19T23:47:35.892Z,69.50
2017-07-19T23:50:04.224Z,69.50
2017-07-19T23:52:32.564Z,69.70
2017-07-19T23:55:00.868Z,69.80
2017-07-19T23:57:29.210Z,70.10
2017-07-19T23:59:57.458Z,70.00
